Time;durP1;ratioP1;P1;durP2;ratioP2;P2;SDS_P1;SDS_P2;PMS_P1;PMS_P2;Temp;Humidity;BMP_temperature;BMP_pressure;BME280_temperature;BME280_humidity;BME280_pressure;Samples;Min_cycle;Max_cycle;Signal;HPM_P1;HPM_P2
2021/08/18 00:00:17;;;;;;;19.70;7.33;;;;;;;-145.18;100.00;60484.78;5083057;28;20032;-69
2021/08/18 00:02:42;;;;;;;18.33;7.43;;;;;;;-145.18;100.00;60484.78;5086074;28;20032;-69
2021/08/18 00:05:11;;;;;;;19.33;7.70;;;;;;;-145.18;100.00;60484.78;5075476;28;20361;-69
2021/08/18 00:07:37;;;;;;;17.57;7.23;;;;;;;-145.18;100.00;60484.78;5086214;28;20040;-69
2021/08/18 00:10:05;;;;;;;18.00;7.00;;;;;;;-145.18;100.00;60484.78;5076389;28;20097;-69
2021/08/18 00:12:30;;;;;;;21.23;7.40;;;;;;;-145.18;100.00;60484.78;5086084;28;20063;-69
2021/08/18 00:14:56;;;;;;;17.93;6.97;;;;;;;-145.18;100.00;60484.78;5077080;28;20094;-69
2021/08/18 00:17:21;;;;;;;16.70;6.73;;;;;;;-145.18;100.00;60484.78;5086390;28;20036;-69
2021/08/18 00:19:47;;;;;;;16.63;6.37;;;;;;;-145.18;100.00;60484.78;5085580;28;20855;-69
2021/08/18 00:22:13;;;;;;;18.53;7.37;;;;;;;-145.18;100.00;60484.78;5085845;28;20040;-69
2021/08/18 00:24:38;;;;;;;19.40;8.17;;;;;;;-145.18;100.00;60484.78;5085694;28;20791;-69
2021/08/18 00:27:04;;;;;;;18.03;7.20;;;;;;;-145.18;100.00;60484.78;5086440;28;20024;-69
2021/08/18 00:29:30;;;;;;;16.33;6.70;;;;;;;-145.18;100.00;60484.78;5081328;28;20020;-69
2021/08/18 00:31:55;;;;;;;20.20;7.30;;;;;;;-145.18;100.00;60484.78;5085408;28;20121;-69
2021/08/18 00:34:21;;;;;;;17.53;7.03;;;;;;;-145.18;100.00;60484.78;5088899;28;20032;-69
2021/08/18 00:36:46;;;;;;;18.30;6.73;;;;;;;-145.18;100.00;60484.78;5085955;28;20028;-69
2021/08/18 00:39:12;;;;;;;17.53;6.67;;;;;;;-145.18;100.00;60484.78;5085183;28;20024;-69
2021/08/18 00:41:37;;;;;;;16.77;6.90;;;;;;;-145.18;100.00;60484.78;5085553;28;20495;-69
2021/08/18 00:44:04;;;;;;;20.50;8.83;;;;;;;-145.18;100.00;60484.78;5084967;28;20055;-69
2021/08/18 00:46:30;;;;;;;18.73;7.53;;;;;;;-145.18;100.00;60484.78;5085805;28;20027;-69
2021/08/18 00:48:56;;;;;;;18.90;8.20;;;;;;;-145.18;100.00;60484.78;5085062;28;20124;-69
2021/08/18 00:51:21;;;;;;;18.03;6.87;;;;;;;-145.18;100.00;60484.78;5085775;28;20035;-69
2021/08/18 00:53:47;;;;;;;17.60;7.27;;;;;;;-145.18;100.00;60484.78;5082477;28;20508;-69
2021/08/18 00:56:13;;;;;;;17.50;6.83;;;;;;;-145.18;100.00;60484.78;5092030;28;20034;-69
2021/08/18 00:58:38;;;;;;;18.80;7.50;;;;;;;-145.18;100.00;60484.78;5085769;28;20040;-69
2021/08/18 01:01:04;;;;;;;18.67;7.53;;;;;;;-145.18;100.00;60484.78;5083030;28;20020;-69
2021/08/18 01:03:29;;;;;;;16.40;7.00;;;;;;;-145.18;100.00;60484.78;5084330;28;20028;-69
2021/08/18 01:05:55;;;;;;;19.03;7.37;;;;;;;-145.18;100.00;60484.78;5079605;28;20059;-69
2021/08/18 01:08:21;;;;;;;17.97;6.93;;;;;;;-145.18;100.00;60484.78;5085035;28;20401;-69
2021/08/18 01:10:48;;;;;;;19.43;7.93;;;;;;;-145.18;100.00;60484.78;5078683;28;20028;-69
2021/08/18 01:13:13;;;;;;;17.90;7.23;;;;;;;-145.18;100.00;60484.78;5085286;28;20036;-69
2021/08/18 01:15:39;;;;;;;18.90;7.63;;;;;;;-145.18;100.00;60484.78;5077929;28;20024;-69
2021/08/18 01:18:05;;;;;;;17.83;7.50;;;;;;;-145.18;100.00;60484.78;5085024;28;20032;-69
2021/08/18 01:20:37;;;;;;;20.77;7.40;;;;;;;-145.18;100.00;60484.78;5077999;28;20027;-69
2021/08/18 01:23:07;;;;;;;18.53;7.93;;;;;;;-145.18;100.00;60484.78;5081910;28;20067;-69
2021/08/18 01:25:35;;;;;;;18.70;7.40;;;;;;;-145.18;100.00;60484.78;5080349;28;20540;-69
2021/08/18 01:28:03;;;;;;;16.80;6.93;;;;;;;-145.18;100.00;60484.78;5084947;28;20031;-69
2021/08/18 01:30:30;;;;;;;19.97;7.67;;;;;;;-145.18;100.00;60484.78;5079825;28;20028;-69
2021/08/18 01:33:01;;;;;;;18.37;6.90;;;;;;;-145.18;100.00;60484.78;5084716;28;20023;-69
2021/08/18 01:35:33;;;;;;;19.48;7.65;;;;;;;-145.18;100.00;60484.78;5083989;28;20406;-69
2021/08/18 01:38:00;;;;;;;16.08;7.40;;;;;;;-145.18;100.00;60484.78;5084731;28;20042;-69
2021/08/18 01:40:26;;;;;;;17.57;7.80;;;;;;;-145.18;100.00;60484.78;5083861;28;20039;-69
2021/08/18 01:42:52;;;;;;;15.93;6.53;;;;;;;-145.18;100.00;60484.78;5084064;28;20031;-69
2021/08/18 01:45:32;;;;;;;17.10;6.50;;;;;;;-145.18;100.00;60484.78;5083196;28;20032;-70
2021/08/18 01:47:58;;;;;;;14.73;6.50;;;;;;;-145.18;100.00;60484.78;5083934;28;20032;-69
2021/08/18 01:50:25;;;;;;;15.53;6.73;;;;;;;-145.18;100.00;60484.78;5082902;28;20043;-69
2021/08/18 01:52:54;;;;;;;17.23;6.53;;;;;;;-145.18;100.00;60484.78;5084587;28;20047;-69
2021/08/18 01:55:21;;;;;;;16.83;7.50;;;;;;;-145.18;100.00;60484.78;5070924;28;20028;-69
2021/08/18 01:57:47;;;;;;;15.17;6.10;;;;;;;-145.18;100.00;60484.78;5084195;28;20050;-69
2021/08/18 02:00:13;;;;;;;13.27;6.40;;;;;;;-145.18;100.00;60484.78;5080914;28;20137;-69
2021/08/18 02:02:39;;;;;;;16.13;6.40;;;;;;;-145.18;100.00;60484.78;5083637;28;20542;-69
2021/08/18 02:05:07;;;;;;;12.90;5.97;;;;;;;-145.18;100.00;60484.78;5072245;28;20048;-69
2021/08/18 02:07:32;;;;;;;13.03;5.53;;;;;;;-145.18;100.00;60484.78;5083386;28;20073;-69
2021/08/18 02:09:58;;;;;;;13.93;6.33;;;;;;;-145.18;100.00;60484.78;5073705;28;20689;-69
2021/08/18 02:12:27;;;;;;;13.37;5.60;;;;;;;-145.18;100.00;60484.78;5083847;28;20035;-69
2021/08/18 02:14:52;;;;;;;11.97;5.60;;;;;;;-145.18;100.00;60484.78;5077304;28;20028;-69
2021/08/18 02:17:18;;;;;;;14.37;6.33;;;;;;;-145.18;100.00;60484.78;5083334;28;20028;-69
2021/08/18 02:19:43;;;;;;;14.17;6.20;;;;;;;-145.18;100.00;60484.78;5076576;28;20036;-69
2021/08/18 02:22:09;;;;;;;13.77;6.27;;;;;;;-145.18;100.00;60484.78;5083791;28;20028;-69
2021/08/18 02:24:34;;;;;;;14.50;6.53;;;;;;;-145.18;100.00;60484.78;5075884;28;20162;-69
2021/08/18 02:27:00;;;;;;;11.80;5.97;;;;;;;-145.18;100.00;60484.78;5083249;28;20487;-69
2021/08/18 02:29:25;;;;;;;10.50;5.00;;;;;;;-145.18;100.00;60484.78;5081515;28;20031;-69
2021/08/18 02:31:50;;;;;;;12.33;6.10;;;;;;;-145.18;100.00;60484.78;5083452;28;20036;-69
2021/08/18 02:34:16;;;;;;;11.30;5.20;;;;;;;-145.18;100.00;60484.78;5073808;28;20437;-69
2021/08/18 02:36:41;;;;;;;12.03;4.70;;;;;;;-145.18;100.00;60484.78;5082765;28;20089;-70
2021/08/18 02:39:12;;;;;;;12.30;5.50;;;;;;;-145.18;100.00;60484.78;5078768;28;20032;-70
2021/08/18 02:41:38;;;;;;;11.27;5.20;;;;;;;-145.18;100.00;60484.78;5079700;28;20028;-69
2021/08/18 02:44:04;;;;;;;11.83;5.50;;;;;;;-145.18;100.00;60484.78;5082991;28;20035;-69
2021/08/18 02:46:29;;;;;;;12.30;5.33;;;;;;;-145.18;100.00;60484.78;5069746;28;20028;-69
2021/08/18 02:48:55;;;;;;;11.90;5.57;;;;;;;-145.18;100.00;60484.78;5079399;28;20036;-69
2021/08/18 02:51:20;;;;;;;14.40;5.80;;;;;;;-145.18;100.00;60484.78;5082947;28;20476;-69
2021/08/18 02:53:46;;;;;;;11.83;5.60;;;;;;;-145.18;100.00;60484.78;5081323;28;20090;-69
2021/08/18 02:56:11;;;;;;;11.70;4.80;;;;;;;-145.18;100.00;60484.78;5072676;28;20028;-69
2021/08/18 02:58:37;;;;;;;11.90;5.13;;;;;;;-145.18;100.00;60484.78;5081473;28;20423;-69
2021/08/18 03:01:02;;;;;;;14.23;6.20;;;;;;;-145.18;100.00;60484.78;5080550;28;20054;-69
2021/08/18 03:03:28;;;;;;;12.90;5.10;;;;;;;-145.18;100.00;60484.78;5083305;28;20024;-69
2021/08/18 03:05:53;;;;;;;11.37;5.03;;;;;;;-145.18;100.00;60484.78;5079062;28;20484;-69
2021/08/18 03:08:19;;;;;;;12.30;5.47;;;;;;;-145.18;100.00;60484.78;5082939;28;20046;-69
2021/08/18 03:10:44;;;;;;;11.87;5.57;;;;;;;-145.18;100.00;60484.78;5077798;28;20043;-69
2021/08/18 03:13:10;;;;;;;11.83;5.07;;;;;;;-145.18;100.00;60484.78;5083085;28;20031;-69
2021/08/18 03:15:35;;;;;;;10.70;4.53;;;;;;;-145.18;100.00;60484.78;5077429;28;20056;-70
2021/08/18 03:18:01;;;;;;;12.10;5.33;;;;;;;-145.18;100.00;60484.78;5079397;28;20069;-69
2021/08/18 03:20:26;;;;;;;11.57;5.13;;;;;;;-145.18;100.00;60484.78;5076515;28;20031;-69
2021/08/18 03:22:52;;;;;;;11.43;5.40;;;;;;;-145.18;100.00;60484.78;5082368;28;20114;-70
2021/08/18 03:25:17;;;;;;;10.47;4.60;;;;;;;-145.18;100.00;60484.78;5076927;28;20032;-69
2021/08/18 03:27:43;;;;;;;10.17;4.37;;;;;;;-145.18;100.00;60484.78;5082500;28;20081;-69
2021/08/18 03:30:10;;;;;;;11.07;4.97;;;;;;;-145.18;100.00;60484.78;5081261;28;20382;-69
2021/08/18 03:32:36;;;;;;;11.80;5.13;;;;;;;-145.18;100.00;60484.78;5082303;28;20036;-69
2021/08/18 03:35:03;;;;;;;11.97;5.03;;;;;;;-145.18;100.00;60484.78;5081796;28;20707;-69
2021/08/18 03:37:28;;;;;;;12.50;4.73;;;;;;;-145.18;100.00;60484.78;5082584;28;20114;-70
2021/08/18 03:39:54;;;;;;;12.47;4.80;;;;;;;-145.18;100.00;60484.78;5081122;28;20119;-70
2021/08/18 03:42:19;;;;;;;8.57;4.20;;;;;;;-145.18;100.00;60484.78;5073701;28;20055;-69
2021/08/18 03:44:45;;;;;;;10.50;4.97;;;;;;;-145.18;100.00;60484.78;5081581;28;20093;-69
2021/08/18 03:47:10;;;;;;;9.47;4.70;;;;;;;-145.18;100.00;60484.78;5082539;28;20028;-69
2021/08/18 03:49:36;;;;;;;11.77;5.40;;;;;;;-145.18;100.00;60484.78;5081510;28;20195;-69
2021/08/18 03:52:01;;;;;;;9.87;4.40;;;;;;;-145.18;100.00;60484.78;5081986;28;20036;-69
2021/08/18 03:54:27;;;;;;;12.10;4.80;;;;;;;-145.18;100.00;60484.78;5078968;28;20084;-69
2021/08/18 03:56:52;;;;;;;12.93;5.00;;;;;;;-145.18;100.00;60484.78;5095140;28;20031;-69
2021/08/18 03:59:18;;;;;;;14.07;4.63;;;;;;;-145.18;100.00;60484.78;5078105;28;20047;-69
2021/08/18 04:01:44;;;;;;;11.83;4.90;;;;;;;-145.18;100.00;60484.78;5082417;28;20031;-69
2021/08/18 04:04:10;;;;;;;12.07;5.07;;;;;;;-145.18;100.00;60484.78;5077394;28;20397;-69
2021/08/18 04:06:35;;;;;;;8.83;4.27;;;;;;;-145.18;100.00;60484.78;5082451;28;20032;-69
2021/08/18 04:09:02;;;;;;;11.50;4.70;;;;;;;-145.18;100.00;60484.78;5077269;28;20052;-69
2021/08/18 04:11:28;;;;;;;10.00;4.33;;;;;;;-145.18;100.00;60484.78;5079005;28;20028;-69
2021/08/18 04:13:53;;;;;;;9.10;4.53;;;;;;;-145.18;100.00;60484.78;5078948;28;20031;-69
2021/08/18 04:16:19;;;;;;;9.30;4.07;;;;;;;-145.18;100.00;60484.78;5079299;28;20649;-69
2021/08/18 04:18:44;;;;;;;8.10;3.80;;;;;;;-145.18;100.00;60484.78;5080489;28;20088;-69
2021/08/18 04:21:11;;;;;;;11.10;4.47;;;;;;;-145.18;100.00;60484.78;5077150;28;20077;-69
2021/08/18 04:23:37;;;;;;;9.90;5.03;;;;;;;-145.18;100.00;60484.78;5081239;28;20024;-69
2021/08/18 04:26:03;;;;;;;8.80;4.37;;;;;;;-145.18;100.00;60484.78;5075967;28;20476;-69
2021/08/18 04:28:28;;;;;;;11.03;4.80;;;;;;;-145.18;100.00;60484.78;5082156;28;20464;-69
2021/08/18 04:30:54;;;;;;;10.03;4.47;;;;;;;-145.18;100.00;60484.78;5076520;28;20036;-69
2021/08/18 04:33:19;;;;;;;10.67;4.47;;;;;;;-145.18;100.00;60484.78;5081829;28;20032;-69
2021/08/18 04:35:45;;;;;;;13.23;4.63;;;;;;;-145.18;100.00;60484.78;5077342;28;20028;-69
2021/08/18 04:38:10;;;;;;;12.03;4.67;;;;;;;-145.18;100.00;60484.78;5085977;28;20028;-69
2021/08/18 04:40:36;;;;;;;9.77;4.00;;;;;;;-145.18;100.00;60484.78;5080477;28;20086;-69
2021/08/18 04:43:01;;;;;;;10.00;3.83;;;;;;;-145.18;100.00;60484.78;5078184;28;20024;-69
2021/08/18 04:45:27;;;;;;;10.90;4.37;;;;;;;-145.18;100.00;60484.78;5082414;28;20659;-69
2021/08/18 04:47:53;;;;;;;10.27;4.60;;;;;;;-145.18;100.00;60484.78;5085324;28;20098;-69
2021/08/18 04:50:19;;;;;;;11.83;4.27;;;;;;;-145.18;100.00;60484.78;5082424;28;20036;-69
2021/08/18 04:52:45;;;;;;;12.90;3.87;;;;;;;-145.18;100.00;60484.78;5085549;28;20052;-69
2021/08/18 04:55:13;;;;;;;8.63;3.70;;;;;;;-145.18;100.00;60484.78;5085216;28;20106;-69
2021/08/18 04:57:38;;;;;;;9.67;4.13;;;;;;;-145.18;100.00;60484.78;5097421;28;20696;-69
2021/08/18 05:00:05;;;;;;;12.37;4.70;;;;;;;-145.18;100.00;60484.78;5073509;28;20114;-69
2021/08/18 05:02:33;;;;;;;10.10;3.70;;;;;;;-145.18;100.00;60484.78;5073604;28;20081;-69
2021/08/18 05:04:59;;;;;;;9.27;4.10;;;;;;;-145.18;100.00;60484.78;5084890;28;20729;-69
2021/08/18 05:07:25;;;;;;;10.90;4.50;;;;;;;-145.18;100.00;60484.78;5084998;28;20084;-69
2021/08/18 05:09:50;;;;;;;9.10;3.97;;;;;;;-145.18;100.00;60484.78;5075740;28;20410;-69
2021/08/18 05:12:16;;;;;;;11.30;4.40;;;;;;;-145.18;100.00;60484.78;5084967;28;20029;-69
2021/08/18 05:14:41;;;;;;;10.90;3.70;;;;;;;-145.18;100.00;60484.78;5077015;28;20039;-69
2021/08/18 05:17:07;;;;;;;9.43;3.87;;;;;;;-145.18;100.00;60484.78;5084564;28;20112;-69
2021/08/18 05:19:32;;;;;;;8.37;3.60;;;;;;;-145.18;100.00;60484.78;5077972;28;20036;-69
2021/08/18 05:21:58;;;;;;;9.27;4.07;;;;;;;-145.18;100.00;60484.78;5078453;28;20424;-69
2021/08/18 05:24:23;;;;;;;9.87;4.50;;;;;;;-145.18;100.00;60484.78;5079816;28;20110;-69
2021/08/18 05:26:49;;;;;;;9.80;4.10;;;;;;;-145.18;100.00;60484.78;5084766;28;20046;-69
2021/08/18 05:29:14;;;;;;;11.60;4.73;;;;;;;-145.18;100.00;60484.78;5085596;28;20740;-69
2021/08/18 05:31:40;;;;;;;13.00;4.43;;;;;;;-145.18;100.00;60484.78;5085652;28;20027;-69
2021/08/18 05:34:05;;;;;;;8.27;4.27;;;;;;;-145.18;100.00;60484.78;5084212;28;20024;-69
2021/08/18 05:36:31;;;;;;;9.67;4.13;;;;;;;-145.18;100.00;60484.78;5084879;28;20023;-69
2021/08/18 05:38:56;;;;;;;12.10;4.80;;;;;;;-145.18;100.00;60484.78;5082762;28;20102;-69
2021/08/18 05:41:21;;;;;;;9.93;4.33;;;;;;;-145.18;100.00;60484.78;5083087;28;20135;-69
2021/08/18 05:43:47;;;;;;;11.63;4.60;;;;;;;-145.18;100.00;60484.78;5081976;28;20020;-70
2021/08/18 05:46:12;;;;;;;12.33;4.53;;;;;;;-145.18;100.00;60484.78;5084038;28;20020;-69
2021/08/18 05:48:38;;;;;;;11.50;4.83;;;;;;;-145.18;100.00;60484.78;5082938;28;20487;-69
2021/08/18 05:51:07;;;;;;;11.17;4.43;;;;;;;-145.18;100.00;60484.78;5082380;28;20027;-69
2021/08/18 05:53:33;;;;;;;10.73;4.27;;;;;;;-145.18;100.00;60484.78;5082780;28;20515;-69
2021/08/18 05:55:58;;;;;;;8.87;3.83;;;;;;;-145.18;100.00;60484.78;5083409;28;20036;-69
2021/08/18 05:58:24;;;;;;;10.63;4.17;;;;;;;-145.18;100.00;60484.78;5083145;28;20053;-69
2021/08/18 06:00:49;;;;;;;11.87;3.67;;;;;;;-145.18;100.00;60484.78;5082655;28;20099;-70
2021/08/18 06:03:15;;;;;;;10.83;4.83;;;;;;;-145.18;100.00;60484.78;5075094;28;20024;-70
2021/08/18 06:05:40;;;;;;;9.50;4.20;;;;;;;-145.18;100.00;60484.78;5073403;28;20075;-70
2021/08/18 06:08:06;;;;;;;11.13;3.50;;;;;;;-145.18;100.00;60484.78;5083988;28;20122;-70
2021/08/18 06:10:33;;;;;;;9.97;4.13;;;;;;;-145.18;100.00;60484.78;5074345;28;20024;-70
2021/08/18 06:13:01;;;;;;;8.67;4.23;;;;;;;-145.18;100.00;60484.78;5083679;28;20032;-70
2021/08/18 06:15:27;;;;;;;8.33;3.90;;;;;;;-145.18;100.00;60484.78;5070652;28;20031;-70
2021/08/18 06:17:52;;;;;;;8.00;3.33;;;;;;;-145.18;100.00;60484.78;5083974;28;20027;-70
2021/08/18 06:20:18;;;;;;;9.00;3.77;;;;;;;-145.18;100.00;60484.78;5074848;28;20027;-70
2021/08/18 06:22:46;;;;;;;9.23;3.47;;;;;;;-145.18;100.00;60484.78;5083632;28;20028;-70
2021/08/18 06:25:12;;;;;;;7.63;3.20;;;;;;;-145.18;100.00;60484.78;5075905;28;20103;-70
2021/08/18 06:27:38;;;;;;;8.17;3.73;;;;;;;-145.18;100.00;60484.78;5083526;28;20124;-70
2021/08/18 06:30:04;;;;;;;12.13;3.37;;;;;;;-145.18;100.00;60484.78;5078751;28;20028;-70
2021/08/18 06:32:30;;;;;;;6.97;3.27;;;;;;;-145.18;100.00;60484.78;5083323;28;20020;-70
2021/08/18 06:34:55;;;;;;;7.13;2.90;;;;;;;-145.18;100.00;60484.78;5075700;28;20028;-70
2021/08/18 06:37:21;;;;;;;6.93;3.23;;;;;;;-145.18;100.00;60484.78;5083307;28;20028;-70
2021/08/18 06:39:47;;;;;;;8.57;3.33;;;;;;;-145.18;100.00;60484.78;5079643;28;20032;-70
2021/08/18 06:42:12;;;;;;;5.23;2.77;;;;;;;-145.18;100.00;60484.78;5083213;28;20016;-70
2021/08/18 06:44:38;;;;;;;5.53;2.70;;;;;;;-145.18;100.00;60484.78;5080420;28;20404;-70
2021/08/18 06:47:04;;;;;;;6.80;2.80;;;;;;;-145.18;100.00;60484.78;5083430;28;20484;-70
2021/08/18 06:49:30;;;;;;;6.23;2.87;;;;;;;-145.18;100.00;60484.78;5081679;28;20020;-70
2021/08/18 06:51:56;;;;;;;5.73;2.83;;;;;;;-145.18;100.00;60484.78;5083441;28;20046;-70
2021/08/18 06:54:21;;;;;;;5.30;2.40;;;;;;;-145.18;100.00;60484.78;5075619;28;20036;-70
2021/08/18 06:56:46;;;;;;;7.03;2.77;;;;;;;-145.18;100.00;60484.78;5077408;28;20020;-70
2021/08/18 06:59:12;;;;;;;7.17;2.23;;;;;;;-145.18;100.00;60484.78;5076356;28;20028;-70
2021/08/18 07:01:37;;;;;;;4.27;1.80;;;;;;;-145.18;100.00;60484.78;5077163;28;20115;-70
2021/08/18 07:04:05;;;;;;;6.67;2.37;;;;;;;-145.18;100.00;60484.78;5078360;28;20052;-70
2021/08/18 07:06:30;;;;;;;5.03;1.97;;;;;;;-145.18;100.00;60484.78;5076804;28;20107;-70
2021/08/18 07:08:56;;;;;;;4.30;2.17;;;;;;;-145.18;100.00;60484.78;5079108;28;20132;-70
2021/08/18 07:11:21;;;;;;;5.70;2.20;;;;;;;-145.18;100.00;60484.78;5077265;28;20551;-70
2021/08/18 07:13:47;;;;;;;6.10;1.97;;;;;;;-145.18;100.00;60484.78;5080219;28;20467;-70
2021/08/18 07:16:12;;;;;;;4.97;1.90;;;;;;;-145.18;100.00;60484.78;5076544;28;20027;-70
2021/08/18 07:18:40;;;;;;;6.30;2.20;;;;;;;-145.18;100.00;60484.78;5079448;28;20029;-70
2021/08/18 07:21:05;;;;;;;8.30;2.20;;;;;;;-145.18;100.00;60484.78;5082686;28;20070;-70
2021/08/18 07:23:31;;;;;;;8.10;2.20;;;;;;;-145.18;100.00;60484.78;5082365;28;20028;-70
2021/08/18 07:25:57;;;;;;;5.70;2.37;;;;;;;-145.18;100.00;60484.78;5082362;28;20024;-70
2021/08/18 07:28:22;;;;;;;7.80;2.10;;;;;;;-145.18;100.00;60484.78;5082521;28;20638;-70
2021/08/18 07:30:48;;;;;;;6.67;2.53;;;;;;;-145.18;100.00;60484.78;5091616;28;20023;-70
2021/08/18 07:33:13;;;;;;;6.40;2.30;;;;;;;-145.18;100.00;60484.78;5082716;28;20036;-70
2021/08/18 07:35:38;;;;;;;4.80;1.77;;;;;;;-145.18;100.00;60484.78;5078786;28;20036;-70
2021/08/18 07:38:04;;;;;;;4.73;2.03;;;;;;;-145.18;100.00;60484.78;5082720;28;20024;-70
2021/08/18 07:40:30;;;;;;;7.27;2.20;;;;;;;-145.18;100.00;60484.78;5079828;28;20447;-70
2021/08/18 07:42:56;;;;;;;5.60;1.97;;;;;;;-145.18;100.00;60484.78;5082315;28;20034;-70
2021/08/18 07:45:22;;;;;;;7.30;1.77;;;;;;;-145.18;100.00;60484.78;5081070;28;20028;-70
2021/08/18 07:47:48;;;;;;;4.77;1.67;;;;;;;-145.18;100.00;60484.78;5081945;28;20472;-70
2021/08/18 07:50:13;;;;;;;5.00;2.13;;;;;;;-145.18;100.00;60484.78;5082030;28;20048;-70
2021/08/18 07:52:39;;;;;;;6.07;2.00;;;;;;;-145.18;100.00;60484.78;5082553;28;20115;-69
2021/08/18 07:55:07;;;;;;;5.87;1.90;;;;;;;-145.18;100.00;60484.78;5079654;28;20480;-70
2021/08/18 07:57:34;;;;;;;4.60;1.80;;;;;;;-145.18;100.00;60484.78;5082248;28;20420;-70
2021/08/18 08:00:06;;;;;;;6.27;2.53;;;;;;;-145.18;100.00;60484.78;5071311;28;20025;-70
2021/08/18 08:02:32;;;;;;;4.88;1.92;;;;;;;-145.18;100.00;60484.78;5082426;28;20024;-70
2021/08/18 08:04:58;;;;;;;4.43;1.93;;;;;;;-145.18;100.00;60484.78;5071525;28;20108;-70
2021/08/18 08:07:24;;;;;;;6.13;2.27;;;;;;;-145.18;100.00;60484.78;5081910;28;20127;-70
2021/08/18 08:09:50;;;;;;;6.43;1.80;;;;;;;-145.18;100.00;60484.78;5073578;28;20024;-70
2021/08/18 08:12:16;;;;;;;5.40;1.63;;;;;;;-145.18;100.00;60484.78;5086489;28;20050;-70
2021/08/18 08:14:42;;;;;;;4.30;1.70;;;;;;;-145.18;100.00;60484.78;5076672;28;20115;-70
2021/08/18 08:17:07;;;;;;;4.87;1.80;;;;;;;-145.18;100.00;60484.78;5086057;28;20093;-70
2021/08/18 08:19:33;;;;;;;5.07;1.73;;;;;;;-145.18;100.00;60484.78;5077475;28;20545;-70
2021/08/18 08:21:59;;;;;;;4.60;1.70;;;;;;;-145.18;100.00;60484.78;5086441;28;20068;-70
2021/08/18 08:24:24;;;;;;;4.87;1.80;;;;;;;-145.18;100.00;60484.78;5078335;28;20094;-70
2021/08/18 08:26:50;;;;;;;7.97;2.00;;;;;;;-145.18;100.00;60484.78;5072589;28;20036;-70
2021/08/18 08:29:15;;;;;;;10.40;2.00;;;;;;;-145.18;100.00;60484.78;5079233;28;20420;-70
2021/08/18 08:31:42;;;;;;;3.03;1.20;;;;;;;-145.18;100.00;60484.78;5072285;28;20158;-70
2021/08/18 08:34:09;;;;;;;4.73;1.63;;;;;;;-145.18;100.00;60484.78;5080332;28;20074;-70
2021/08/18 08:36:34;;;;;;;3.63;1.60;;;;;;;-145.18;100.00;60484.78;5085088;28;20636;-70
2021/08/18 08:39:00;;;;;;;4.93;1.70;;;;;;;-145.18;100.00;60484.78;5081394;28;20040;-70
2021/08/18 08:41:25;;;;;;;6.90;2.00;;;;;;;-145.18;100.00;60484.78;5084175;28;20031;-70
2021/08/18 08:43:53;;;;;;;3.08;1.42;;;;;;;-145.18;100.00;60484.78;5082791;28;20044;-70
2021/08/18 08:46:19;;;;;;;4.03;1.63;;;;;;;-145.18;100.00;60484.78;5084745;28;20028;-69
2021/08/18 08:48:45;;;;;;;5.68;1.58;;;;;;;-145.18;100.00;60484.78;5083302;28;20091;-70
2021/08/18 08:51:10;;;;;;;6.18;1.60;;;;;;;-145.18;100.00;60484.78;5084922;28;20123;-70
2021/08/18 08:53:37;;;;;;;3.85;1.40;;;;;;;-145.18;100.00;60484.78;5084985;28;20028;-70
2021/08/18 08:56:06;;;;;;;4.18;1.40;;;;;;;-145.18;100.00;60484.78;5084641;28;20166;-70
2021/08/18 08:58:31;;;;;;;4.80;1.65;;;;;;;-145.18;100.00;60484.78;5084898;28;20073;-70
2021/08/18 09:00:57;;;;;;;6.10;2.17;;;;;;;-145.18;100.00;60484.78;5085368;28;20119;-70
2021/08/18 09:03:23;;;;;;;4.80;1.33;;;;;;;-145.18;100.00;60484.78;5084830;28;20039;-70
2021/08/18 09:05:50;;;;;;;4.40;1.70;;;;;;;-145.18;100.00;60484.78;5076394;28;20070;-70
2021/08/18 09:08:20;;;;;;;3.53;1.47;;;;;;;-145.18;100.00;60484.78;5085116;28;20074;-70
2021/08/18 09:11:14;;;;;;;4.43;1.50;;;;;;;-145.18;100.00;60484.78;5077509;28;20032;-70
2021/08/18 09:13:48;;;;;;;3.53;1.50;;;;;;;-145.18;100.00;60484.78;5081815;28;20028;-70
2021/08/18 09:16:17;;;;;;;3.80;1.50;;;;;;;-145.18;100.00;60484.78;5080652;28;20028;-70
2021/08/18 09:18:45;;;;;;;3.90;1.70;;;;;;;-145.18;100.00;60484.78;5083231;28;20043;-70
2021/08/18 09:21:39;;;;;;;5.13;1.90;;;;;;;-145.18;100.00;60484.78;5080170;28;20032;-70
2021/08/18 09:24:32;;;;;;;4.33;1.40;;;;;;;-145.18;100.00;60484.78;5081286;28;20056;-70
2021/08/18 09:27:00;;;;;;;;;;;;;;;-145.18;100.00;60484.78;5071006;28;20078;-70
2021/08/18 09:29:56;;;;;;;4.53;1.70;;;;;;;-145.18;100.00;60484.78;5079015;28;19921;-70
2021/08/18 09:32:27;;;;;;;4.10;1.80;;;;;;;-145.18;100.00;60484.78;5080617;28;20059;-70
2021/08/18 09:35:03;;;;;;;3.03;1.70;;;;;;;-145.18;100.00;60484.78;5080592;28;20043;-70
2021/08/18 09:37:31;;;;;;;4.63;1.87;;;;;;;-145.18;100.00;60484.78;5084573;28;20039;-70
2021/08/18 09:39:57;;;;;;;3.93;1.90;;;;;;;-145.18;100.00;60484.78;5080843;28;20081;-70
2021/08/18 09:42:30;;;;;;;4.00;1.90;;;;;;;-145.18;100.00;60484.78;5084282;28;20085;-70
2021/08/18 09:45:16;;;;;;;3.63;1.30;;;;;;;-145.18;100.00;60484.78;5081580;28;20050;-69
2021/08/18 09:47:56;;;;;;;3.27;1.50;;;;;;;-145.18;100.00;60484.78;5084193;28;20023;-69
2021/08/18 09:50:24;;;;;;;3.57;1.60;;;;;;;-145.18;100.00;60484.78;5082646;28;20020;-69
2021/08/18 09:52:51;;;;;;;4.80;1.80;;;;;;;-145.18;100.00;60484.78;5084255;28;20036;-69
2021/08/18 09:55:21;;;;;;;4.07;1.37;;;;;;;-145.18;100.00;60484.78;5076007;28;20099;-70
2021/08/18 09:57:47;;;;;;;3.40;1.30;;;;;;;-145.18;100.00;60484.78;5084174;28;20016;-70
2021/08/18 10:00:13;;;;;;;4.10;1.70;;;;;;;-145.18;100.00;60484.78;5073879;28;20032;-70
2021/08/18 10:02:39;;;;;;;4.03;1.60;;;;;;;-145.18;100.00;60484.78;5080233;28;20055;-69
2021/08/18 10:05:05;;;;;;;4.20;1.50;;;;;;;-145.18;100.00;60484.78;5073423;28;20055;-70
2021/08/18 10:07:35;;;;;;;3.30;1.50;;;;;;;-145.18;100.00;60484.78;5083901;28;20420;-70
2021/08/18 10:10:04;;;;;;;3.65;1.55;;;;;;;-145.18;100.00;60484.78;5082913;28;20109;-70
2021/08/18 10:12:30;;;;;;;2.63;1.20;;;;;;;-145.18;100.00;60484.78;5083674;28;20030;-70
2021/08/18 10:14:59;;;;;;;2.92;1.30;;;;;;;-145.18;100.00;60484.78;5076654;28;20038;-70
2021/08/18 10:17:24;;;;;;;3.75;1.42;;;;;;;-145.18;100.00;60484.78;5084009;28;20024;-70
2021/08/18 10:19:51;;;;;;;4.95;1.50;;;;;;;-145.18;100.00;60484.78;5075867;28;20672;-70
2021/08/18 10:22:27;;;;;;;4.80;1.60;;;;;;;-145.18;100.00;60484.78;5083620;28;20024;-70
2021/08/18 10:24:53;;;;;;;4.00;1.38;;;;;;;-145.18;100.00;60484.78;5077180;28;20081;-70
2021/08/18 10:27:46;;;;;;;4.78;1.60;;;;;;;-145.18;100.00;60484.78;5083710;28;20016;-70
2021/08/18 10:30:25;;;;;;;2.83;1.40;;;;;;;-145.18;100.00;60484.78;5074450;28;20035;-70
2021/08/18 10:32:52;;;;;;;2.40;1.20;;;;;;;-145.18;100.00;60484.78;5083379;28;20032;-70
2021/08/18 10:35:56;;;;;;;3.75;1.50;;;;;;;-145.18;100.00;60484.78;5077873;28;20782;-70
2021/08/18 10:38:39;;;;;;;3.75;1.58;;;;;;;-145.18;100.00;60484.78;4999966;28;20479;-70
2021/08/18 10:41:06;;;;;;;2.40;1.10;;;;;;;-145.18;100.00;60484.78;4997478;28;20041;-70
2021/08/18 10:44:30;;;;;;;3.33;1.30;;;;;;;-145.18;100.00;60484.78;5000405;28;20125;-70
2021/08/18 10:47:21;;;;;;;3.47;1.60;;;;;;;-145.18;100.00;60484.78;4942084;29;20492;-70
2021/08/18 10:49:52;;;;;;;3.65;1.60;;;;;;;-145.18;100.00;60484.78;4941910;29;20078;-70
2021/08/18 10:52:47;;;;;;;4.55;1.65;;;;;;;-145.18;100.00;60484.78;4941528;29;20050;-70
2021/08/18 10:55:17;;;;;;;3.72;1.42;;;;;;;-145.18;100.00;60484.78;4941588;28;20086;-70
2021/08/18 10:57:50;;;;;;;3.00;1.50;;;;;;;-145.18;100.00;60484.78;4941862;29;20031;-70
2021/08/18 11:00:36;;;;;;;3.65;1.20;;;;;;;-145.18;100.00;60484.78;4941825;29;20035;-70
2021/08/18 11:03:09;;;;;;;3.92;1.50;;;;;;;-145.18;100.00;60484.78;4941757;29;20043;-70
2021/08/18 11:05:53;;;;;;;2.67;1.38;;;;;;;-145.18;100.00;60484.78;4940997;29;20047;-70
2021/08/18 11:08:28;;;;;;;3.45;1.30;;;;;;;-145.18;100.00;60484.78;4947070;28;20220;-70